sensor_id;sensor_type;location;lat;lon;timestamp;temperature;humidity
15426;DHT22;7812;50.072;7.036;2023-04-09T00:02:12;6.80;99.90
15426;DHT22;7812;50.072;7.036;2023-04-09T00:04:38;6.80;99.90
15426;DHT22;7812;50.072;7.036;2023-04-09T00:07:03;6.80;99.90
15426;DHT22;7812;50.072;7.036;2023-04-09T00:09:29;6.70;99.90
15426;DHT22;7812;50.072;7.036;2023-04-09T00:11:55;6.80;99.90
15426;DHT22;7812;50.072;7.036;2023-04-09T00:14:21;6.70;99.90
15426;DHT22;7812;50.072;7.036;2023-04-09T00:16:47;6.70;99.90
15426;DHT22;7812;50.072;7.036;2023-04-09T00:19:12;6.80;99.90
15426;DHT22;7812;50.072;7.036;2023-04-09T00:21:38;6.80;99.90
15426;DHT22;7812;50.072;7.036;2023-04-09T00:24:04;6.70;99.90
15426;DHT22;7812;50.072;7.036;2023-04-09T00:26:30;6.70;99.90
15426;DHT22;7812;50.072;7.036;2023-04-09T00:28:56;6.70;99.90
15426;DHT22;7812;50.072;7.036;2023-04-09T00:31:21;6.70;99.90
15426;DHT22;7812;50.072;7.036;2023-04-09T00:33:48;6.70;99.90
15426;DHT22;7812;50.072;7.036;2023-04-09T00:36:14;6.70;99.90
15426;DHT22;7812;50.072;7.036;2023-04-09T00:38:40;6.80;99.90
15426;DHT22;7812;50.072;7.036;2023-04-09T00:41:06;6.80;99.90
15426;DHT22;7812;50.072;7.036;2023-04-09T00:43:31;6.70;99.90
15426;DHT22;7812;50.072;7.036;2023-04-09T00:45:58;6.80;99.90
15426;DHT22;7812;50.072;7.036;2023-04-09T00:48:24;6.70;99.90
15426;DHT22;7812;50.072;7.036;2023-04-09T00:50:50;6.60;99.90
15426;DHT22;7812;50.072;7.036;2023-04-09T00:53:16;6.50;99.90
15426;DHT22;7812;50.072;7.036;2023-04-09T00:55:42;6.40;99.90
15426;DHT22;7812;50.072;7.036;2023-04-09T00:58:08;6.30;99.90
15426;DHT22;7812;50.072;7.036;2023-04-09T01:00:33;6.30;99.90
15426;DHT22;7812;50.072;7.036;2023-04-09T01:03:00;6.40;99.90
15426;DHT22;7812;50.072;7.036;2023-04-09T01:05:44;6.30;99.90
15426;DHT22;7812;50.072;7.036;2023-04-09T01:08:37;6.30;99.90
15426;DHT22;7812;50.072;7.036;2023-04-09T01:14:00;6.20;99.90
15426;DHT22;7812;50.072;7.036;2023-04-09T01:16:29;6.20;99.90
15426;DHT22;7812;50.072;7.036;2023-04-09T01:19:00;6.30;99.90
15426;DHT22;7812;50.072;7.036;2023-04-09T01:21:31;6.40;99.90
15426;DHT22;7812;50.072;7.036;2023-04-09T01:28:53;6.40;99.90
15426;DHT22;7812;50.072;7.036;2023-04-09T01:31:27;6.40;99.90
15426;DHT22;7812;50.072;7.036;2023-04-09T01:33:54;6.40;99.90
15426;DHT22;7812;50.072;7.036;2023-04-09T01:36:21;6.40;99.90
15426;DHT22;7812;50.072;7.036;2023-04-09T01:38:47;6.40;99.90
15426;DHT22;7812;50.072;7.036;2023-04-09T01:41:17;6.40;99.90
15426;DHT22;7812;50.072;7.036;2023-04-09T01:43:44;6.40;99.90
15426;DHT22;7812;50.072;7.036;2023-04-09T01:46:11;6.30;99.90
15426;DHT22;7812;50.072;7.036;2023-04-09T01:48:37;6.30;99.90
15426;DHT22;7812;50.072;7.036;2023-04-09T01:51:03;6.40;99.90
15426;DHT22;7812;50.072;7.036;2023-04-09T01:53:29;6.50;99.90
15426;DHT22;7812;50.072;7.036;2023-04-09T01:55:57;6.50;99.90
15426;DHT22;7812;50.072;7.036;2023-04-09T01:58:24;6.50;99.90
15426;DHT22;7812;50.072;7.036;2023-04-09T02:00:51;6.50;99.90
15426;DHT22;7812;50.072;7.036;2023-04-09T02:03:23;6.50;99.90
15426;DHT22;7812;50.072;7.036;2023-04-09T02:06:12;6.50;99.90
15426;DHT22;7812;50.072;7.036;2023-04-09T02:08:45;6.50;99.90
15426;DHT22;7812;50.072;7.036;2023-04-09T02:11:11;6.50;99.90
15426;DHT22;7812;50.072;7.036;2023-04-09T02:13:39;6.50;99.90
15426;DHT22;7812;50.072;7.036;2023-04-09T02:16:08;6.60;99.90
15426;DHT22;7812;50.072;7.036;2023-04-09T02:18:35;6.50;99.90
15426;DHT22;7812;50.072;7.036;2023-04-09T02:21:01;6.50;99.90
15426;DHT22;7812;50.072;7.036;2023-04-09T02:23:27;6.50;99.90
15426;DHT22;7812;50.072;7.036;2023-04-09T02:25:52;6.50;99.90
15426;DHT22;7812;50.072;7.036;2023-04-09T02:28:18;6.60;99.90
15426;DHT22;7812;50.072;7.036;2023-04-09T02:30:44;6.70;99.90
15426;DHT22;7812;50.072;7.036;2023-04-09T02:33:10;6.60;99.90
15426;DHT22;7812;50.072;7.036;2023-04-09T02:35:36;6.60;99.90
15426;DHT22;7812;50.072;7.036;2023-04-09T02:38:02;6.70;99.90
15426;DHT22;7812;50.072;7.036;2023-04-09T02:40:27;6.70;99.90
15426;DHT22;7812;50.072;7.036;2023-04-09T02:42:53;6.70;99.90
15426;DHT22;7812;50.072;7.036;2023-04-09T02:45:19;6.80;99.90
15426;DHT22;7812;50.072;7.036;2023-04-09T02:47:45;6.80;99.90
15426;DHT22;7812;50.072;7.036;2023-04-09T02:50:10;6.70;99.90
15426;DHT22;7812;50.072;7.036;2023-04-09T02:52:36;6.70;99.90
15426;DHT22;7812;50.072;7.036;2023-04-09T02:55:02;6.60;99.90
15426;DHT22;7812;50.072;7.036;2023-04-09T02:57:27;6.60;99.90
15426;DHT22;7812;50.072;7.036;2023-04-09T02:59:54;6.60;99.90
15426;DHT22;7812;50.072;7.036;2023-04-09T03:02:19;6.60;99.90
15426;DHT22;7812;50.072;7.036;2023-04-09T03:04:45;6.60;99.90
15426;DHT22;7812;50.072;7.036;2023-04-09T03:07:11;6.70;99.90
15426;DHT22;7812;50.072;7.036;2023-04-09T03:09:36;6.60;99.90
15426;DHT22;7812;50.072;7.036;2023-04-09T03:12:02;6.50;99.90
15426;DHT22;7812;50.072;7.036;2023-04-09T03:14:28;6.50;99.90
15426;DHT22;7812;50.072;7.036;2023-04-09T03:16:53;6.50;99.90
15426;DHT22;7812;50.072;7.036;2023-04-09T03:19:19;6.50;99.90
15426;DHT22;7812;50.072;7.036;2023-04-09T03:21:45;6.50;99.90
15426;DHT22;7812;50.072;7.036;2023-04-09T03:24:15;6.50;99.90
15426;DHT22;7812;50.072;7.036;2023-04-09T03:26:40;6.50;99.90
15426;DHT22;7812;50.072;7.036;2023-04-09T03:29:06;6.60;99.90
15426;DHT22;7812;50.072;7.036;2023-04-09T03:31:32;6.60;99.90
15426;DHT22;7812;50.072;7.036;2023-04-09T03:33:57;6.50;99.90
15426;DHT22;7812;50.072;7.036;2023-04-09T03:36:26;6.40;99.90
15426;DHT22;7812;50.072;7.036;2023-04-09T03:38:52;6.30;99.90
15426;DHT22;7812;50.072;7.036;2023-04-09T03:41:18;6.40;99.90
15426;DHT22;7812;50.072;7.036;2023-04-09T03:43:43;6.50;99.90
15426;DHT22;7812;50.072;7.036;2023-04-09T03:46:13;6.50;99.90
15426;DHT22;7812;50.072;7.036;2023-04-09T03:48:39;6.50;99.90
15426;DHT22;7812;50.072;7.036;2023-04-09T03:51:05;6.50;99.90
15426;DHT22;7812;50.072;7.036;2023-04-09T03:53:31;6.40;99.90
15426;DHT22;7812;50.072;7.036;2023-04-09T03:55:57;6.40;99.90
15426;DHT22;7812;50.072;7.036;2023-04-09T03:58:23;6.50;99.90
15426;DHT22;7812;50.072;7.036;2023-04-09T04:00:49;6.40;99.90
15426;DHT22;7812;50.072;7.036;2023-04-09T04:03:14;6.30;99.90
15426;DHT22;7812;50.072;7.036;2023-04-09T04:05:41;6.30;99.90
15426;DHT22;7812;50.072;7.036;2023-04-09T04:08:06;6.30;99.90
15426;DHT22;7812;50.072;7.036;2023-04-09T04:10:35;6.40;99.90
15426;DHT22;7812;50.072;7.036;2023-04-09T04:13:01;6.40;99.90
15426;DHT22;7812;50.072;7.036;2023-04-09T04:15:27;6.30;99.90
15426;DHT22;7812;50.072;7.036;2023-04-09T04:17:53;6.40;99.90
15426;DHT22;7812;50.072;7.036;2023-04-09T04:20:19;6.40;99.90
15426;DHT22;7812;50.072;7.036;2023-04-09T04:22:45;6.40;99.90
15426;DHT22;7812;50.072;7.036;2023-04-09T04:25:11;6.50;99.90
15426;DHT22;7812;50.072;7.036;2023-04-09T04:27:36;6.50;99.90
15426;DHT22;7812;50.072;7.036;2023-04-09T04:30:06;6.50;99.90
15426;DHT22;7812;50.072;7.036;2023-04-09T04:32:31;6.40;99.90
15426;DHT22;7812;50.072;7.036;2023-04-09T04:34:57;6.40;99.90
15426;DHT22;7812;50.072;7.036;2023-04-09T04:37:23;6.50;99.90
15426;DHT22;7812;50.072;7.036;2023-04-09T04:39:48;6.50;99.90
15426;DHT22;7812;50.072;7.036;2023-04-09T04:42:14;6.50;99.90
15426;DHT22;7812;50.072;7.036;2023-04-09T04:44:40;6.50;99.90
15426;DHT22;7812;50.072;7.036;2023-04-09T04:47:05;6.50;99.90
15426;DHT22;7812;50.072;7.036;2023-04-09T04:49:31;6.50;99.90
15426;DHT22;7812;50.072;7.036;2023-04-09T04:51:56;6.50;99.90
15426;DHT22;7812;50.072;7.036;2023-04-09T04:54:24;6.50;99.90
15426;DHT22;7812;50.072;7.036;2023-04-09T04:56:49;6.40;99.90
15426;DHT22;7812;50.072;7.036;2023-04-09T04:59:15;6.40;99.90
15426;DHT22;7812;50.072;7.036;2023-04-09T05:01:40;6.40;99.90
15426;DHT22;7812;50.072;7.036;2023-04-09T05:04:06;6.30;99.90
15426;DHT22;7812;50.072;7.036;2023-04-09T05:06:32;6.20;99.90
15426;DHT22;7812;50.072;7.036;2023-04-09T05:08:57;6.30;99.90
15426;DHT22;7812;50.072;7.036;2023-04-09T05:11:24;6.40;99.90
15426;DHT22;7812;50.072;7.036;2023-04-09T05:13:49;6.40;99.90
15426;DHT22;7812;50.072;7.036;2023-04-09T05:16:19;6.50;99.90
15426;DHT22;7812;50.072;7.036;2023-04-09T05:18:45;6.50;99.90
15426;DHT22;7812;50.072;7.036;2023-04-09T05:21:11;6.60;99.90
15426;DHT22;7812;50.072;7.036;2023-04-09T05:23:37;6.60;99.90
15426;DHT22;7812;50.072;7.036;2023-04-09T05:26:02;6.60;99.90
15426;DHT22;7812;50.072;7.036;2023-04-09T05:28:28;6.70;99.90
15426;DHT22;7812;50.072;7.036;2023-04-09T05:30:54;6.70;99.90
15426;DHT22;7812;50.072;7.036;2023-04-09T05:33:19;6.70;99.90
15426;DHT22;7812;50.072;7.036;2023-04-09T05:35:45;6.70;99.90
15426;DHT22;7812;50.072;7.036;2023-04-09T05:38:11;6.80;99.90
15426;DHT22;7812;50.072;7.036;2023-04-09T05:40:38;6.80;99.90
15426;DHT22;7812;50.072;7.036;2023-04-09T05:43:04;6.80;99.90
15426;DHT22;7812;50.072;7.036;2023-04-09T05:45:30;6.80;99.90
15426;DHT22;7812;50.072;7.036;2023-04-09T05:47:56;6.80;99.90
15426;DHT22;7812;50.072;7.036;2023-04-09T05:50:21;6.80;99.90
15426;DHT22;7812;50.072;7.036;2023-04-09T05:52:47;6.90;99.90
15426;DHT22;7812;50.072;7.036;2023-04-09T05:55:13;6.80;99.90
15426;DHT22;7812;50.072;7.036;2023-04-09T05:57:38;6.90;99.90
15426;DHT22;7812;50.072;7.036;2023-04-09T06:00:06;7.00;99.90
15426;DHT22;7812;50.072;7.036;2023-04-09T06:02:32;7.00;99.90
15426;DHT22;7812;50.072;7.036;2023-04-09T06:04:58;7.00;99.90
15426;DHT22;7812;50.072;7.036;2023-04-09T06:07:23;7.10;99.90
15426;DHT22;7812;50.072;7.036;2023-04-09T06:09:49;7.20;99.90
15426;DHT22;7812;50.072;7.036;2023-04-09T06:12:15;7.30;99.90
15426;DHT22;7812;50.072;7.036;2023-04-09T06:14:41;7.30;99.90
15426;DHT22;7812;50.072;7.036;2023-04-09T06:17:06;7.30;99.90
15426;DHT22;7812;50.072;7.036;2023-04-09T06:19:32;7.40;99.90
15426;DHT22;7812;50.072;7.036;2023-04-09T06:21:58;7.50;99.90
15426;DHT22;7812;50.072;7.036;2023-04-09T06:24:23;7.50;99.90
15426;DHT22;7812;50.072;7.036;2023-04-09T06:26:49;7.70;99.90
15426;DHT22;7812;50.072;7.036;2023-04-09T06:29:15;7.90;99.90
15426;DHT22;7812;50.072;7.036;2023-04-09T06:31:40;8.10;99.90
15426;DHT22;7812;50.072;7.036;2023-04-09T06:34:07;8.30;99.90
15426;DHT22;7812;50.072;7.036;2023-04-09T06:36:33;8.40;99.90
15426;DHT22;7812;50.072;7.036;2023-04-09T06:39:02;8.30;99.90
15426;DHT22;7812;50.072;7.036;2023-04-09T06:41:27;8.30;99.90
15426;DHT22;7812;50.072;7.036;2023-04-09T06:43:53;8.60;99.90
15426;DHT22;7812;50.072;7.036;2023-04-09T06:46:19;8.90;99.90
15426;DHT22;7812;50.072;7.036;2023-04-09T06:48:46;9.20;99.90
15426;DHT22;7812;50.072;7.036;2023-04-09T06:51:12;9.60;99.90
15426;DHT22;7812;50.072;7.036;2023-04-09T06:53:39;9.90;99.90
15426;DHT22;7812;50.072;7.036;2023-04-09T06:56:06;10.30;99.90
15426;DHT22;7812;50.072;7.036;2023-04-09T06:58:32;10.60;99.90
15426;DHT22;7812;50.072;7.036;2023-04-09T07:00:58;11.40;99.90
15426;DHT22;7812;50.072;7.036;2023-04-09T07:03:24;11.90;99.90
15426;DHT22;7812;50.072;7.036;2023-04-09T07:05:50;12.10;99.90
15426;DHT22;7812;50.072;7.036;2023-04-09T07:08:16;12.70;99.90
15426;DHT22;7812;50.072;7.036;2023-04-09T07:10:42;13.10;99.90
15426;DHT22;7812;50.072;7.036;2023-04-09T07:13:07;13.20;99.90
15426;DHT22;7812;50.072;7.036;2023-04-09T07:15:33;13.10;99.90
15426;DHT22;7812;50.072;7.036;2023-04-09T07:17:58;13.10;99.90
15426;DHT22;7812;50.072;7.036;2023-04-09T07:20:24;13.00;99.90
15426;DHT22;7812;50.072;7.036;2023-04-09T07:22:50;13.40;99.90
15426;DHT22;7812;50.072;7.036;2023-04-09T07:25:16;13.30;99.90
15426;DHT22;7812;50.072;7.036;2023-04-09T07:27:41;12.70;99.90
15426;DHT22;7812;50.072;7.036;2023-04-09T07:30:08;12.60;99.90
15426;DHT22;7812;50.072;7.036;2023-04-09T07:32:35;12.20;99.90
15426;DHT22;7812;50.072;7.036;2023-04-09T07:35:01;12.60;99.90
15426;DHT22;7812;50.072;7.036;2023-04-09T07:37:29;13.00;99.90
15426;DHT22;7812;50.072;7.036;2023-04-09T07:39:54;13.40;99.90
15426;DHT22;7812;50.072;7.036;2023-04-09T07:42:21;13.50;99.90
15426;DHT22;7812;50.072;7.036;2023-04-09T07:44:47;13.50;99.90
15426;DHT22;7812;50.072;7.036;2023-04-09T07:47:13;13.00;99.90
15426;DHT22;7812;50.072;7.036;2023-04-09T07:49:39;12.40;99.90
15426;DHT22;7812;50.072;7.036;2023-04-09T07:52:05;12.80;99.90
15426;DHT22;7812;50.072;7.036;2023-04-09T07:54:32;12.50;99.90
15426;DHT22;7812;50.072;7.036;2023-04-09T07:56:58;12.80;99.90
15426;DHT22;7812;50.072;7.036;2023-04-09T07:59:24;13.10;99.90
15426;DHT22;7812;50.072;7.036;2023-04-09T08:01:51;13.60;99.90
15426;DHT22;7812;50.072;7.036;2023-04-09T08:04:17;13.40;99.90
15426;DHT22;7812;50.072;7.036;2023-04-09T08:06:43;13.50;99.90
15426;DHT22;7812;50.072;7.036;2023-04-09T08:09:14;14.20;99.90
15426;DHT22;7812;50.072;7.036;2023-04-09T08:11:40;14.40;99.90
15426;DHT22;7812;50.072;7.036;2023-04-09T08:14:05;14.60;99.90
15426;DHT22;7812;50.072;7.036;2023-04-09T08:16:31;15.30;99.90
15426;DHT22;7812;50.072;7.036;2023-04-09T08:18:57;14.80;99.90
15426;DHT22;7812;50.072;7.036;2023-04-09T08:21:23;15.10;99.90
15426;DHT22;7812;50.072;7.036;2023-04-09T08:23:49;15.80;99.90
15426;DHT22;7812;50.072;7.036;2023-04-09T08:26:15;16.50;99.90
15426;DHT22;7812;50.072;7.036;2023-04-09T08:28:41;16.80;99.90
15426;DHT22;7812;50.072;7.036;2023-04-09T08:31:08;15.70;99.90
15426;DHT22;7812;50.072;7.036;2023-04-09T08:33:34;15.50;99.90
15426;DHT22;7812;50.072;7.036;2023-04-09T08:35:59;15.60;99.90
15426;DHT22;7812;50.072;7.036;2023-04-09T08:38:25;15.80;99.90
15426;DHT22;7812;50.072;7.036;2023-04-09T08:40:51;16.00;99.90
15426;DHT22;7812;50.072;7.036;2023-04-09T08:43:18;17.00;99.90
15426;DHT22;7812;50.072;7.036;2023-04-09T08:45:47;15.80;99.90
15426;DHT22;7812;50.072;7.036;2023-04-09T08:48:13;14.40;99.90
15426;DHT22;7812;50.072;7.036;2023-04-09T08:50:40;14.30;99.90
15426;DHT22;7812;50.072;7.036;2023-04-09T08:53:07;14.70;99.90
15426;DHT22;7812;50.072;7.036;2023-04-09T08:55:33;14.50;99.90
15426;DHT22;7812;50.072;7.036;2023-04-09T08:58:00;15.30;99.90
15426;DHT22;7812;50.072;7.036;2023-04-09T09:00:28;16.90;99.90
15426;DHT22;7812;50.072;7.036;2023-04-09T09:05:36;18.60;99.90
15426;DHT22;7812;50.072;7.036;2023-04-09T09:08:02;17.50;99.90
15426;DHT22;7812;50.072;7.036;2023-04-09T09:10:41;16.10;99.90
15426;DHT22;7812;50.072;7.036;2023-04-09T09:13:21;14.90;99.90
15426;DHT22;7812;50.072;7.036;2023-04-09T09:15:47;14.30;99.90
15426;DHT22;7812;50.072;7.036;2023-04-09T09:18:16;13.50;99.90
15426;DHT22;7812;50.072;7.036;2023-04-09T09:20:42;13.40;99.90
15426;DHT22;7812;50.072;7.036;2023-04-09T09:23:08;13.80;99.90
15426;DHT22;7812;50.072;7.036;2023-04-09T09:25:40;13.80;99.90
15426;DHT22;7812;50.072;7.036;2023-04-09T09:28:10;13.60;99.90
15426;DHT22;7812;50.072;7.036;2023-04-09T09:30:37;13.40;99.90
15426;DHT22;7812;50.072;7.036;2023-04-09T09:33:08;13.00;99.90
15426;DHT22;7812;50.072;7.036;2023-04-09T09:35:52;13.40;99.90
15426;DHT22;7812;50.072;7.036;2023-04-09T09:38:19;13.80;99.90
15426;DHT22;7812;50.072;7.036;2023-04-09T09:40:45;13.90;99.90
15426;DHT22;7812;50.072;7.036;2023-04-09T09:43:12;13.60;99.90
15426;DHT22;7812;50.072;7.036;2023-04-09T09:45:39;12.80;99.90
15426;DHT22;7812;50.072;7.036;2023-04-09T09:48:05;12.80;99.90
15426;DHT22;7812;50.072;7.036;2023-04-09T09:50:33;12.70;99.90
15426;DHT22;7812;50.072;7.036;2023-04-09T09:53:06;12.50;99.90
15426;DHT22;7812;50.072;7.036;2023-04-09T09:55:37;12.70;99.90
15426;DHT22;7812;50.072;7.036;2023-04-09T09:58:08;13.10;99.90
15426;DHT22;7812;50.072;7.036;2023-04-09T10:00:36;13.90;99.90
15426;DHT22;7812;50.072;7.036;2023-04-09T10:03:14;14.60;99.90
15426;DHT22;7812;50.072;7.036;2023-04-09T10:05:44;13.60;99.90
15426;DHT22;7812;50.072;7.036;2023-04-09T10:08:10;13.70;99.90
15426;DHT22;7812;50.072;7.036;2023-04-09T10:10:39;13.40;99.90
15426;DHT22;7812;50.072;7.036;2023-04-09T10:13:08;13.30;99.90
15426;DHT22;7812;50.072;7.036;2023-04-09T10:15:38;13.40;99.90
15426;DHT22;7812;50.072;7.036;2023-04-09T10:18:04;13.30;99.90
15426;DHT22;7812;50.072;7.036;2023-04-09T10:20:40;13.30;99.90
15426;DHT22;7812;50.072;7.036;2023-04-09T10:23:17;13.20;99.90
15426;DHT22;7812;50.072;7.036;2023-04-09T10:25:43;13.20;99.90
15426;DHT22;7812;50.072;7.036;2023-04-09T10:28:17;13.40;99.90
15426;DHT22;7812;50.072;7.036;2023-04-09T10:30:42;13.60;99.90
15426;DHT22;7812;50.072;7.036;2023-04-09T10:33:12;13.40;99.90
15426;DHT22;7812;50.072;7.036;2023-04-09T10:35:38;12.90;99.90
15426;DHT22;7812;50.072;7.036;2023-04-09T10:38:08;12.90;99.90
15426;DHT22;7812;50.072;7.036;2023-04-09T10:40:47;12.90;99.90
15426;DHT22;7812;50.072;7.036;2023-04-09T10:43:14;12.90;99.90
15426;DHT22;7812;50.072;7.036;2023-04-09T10:45:44;13.20;99.90
15426;DHT22;7812;50.072;7.036;2023-04-09T10:48:12;13.50;99.90
15426;DHT22;7812;50.072;7.036;2023-04-09T10:50:41;13.80;99.90
15426;DHT22;7812;50.072;7.036;2023-04-09T10:53:07;14.30;99.90
15426;DHT22;7812;50.072;7.036;2023-04-09T10:55:48;14.60;99.90
15426;DHT22;7812;50.072;7.036;2023-04-09T10:58:17;14.90;99.90
15426;DHT22;7812;50.072;7.036;2023-04-09T11:00:45;15.20;99.90
15426;DHT22;7812;50.072;7.036;2023-04-09T11:03:27;14.60;99.90
15426;DHT22;7812;50.072;7.036;2023-04-09T11:06:04;14.50;99.90
15426;DHT22;7812;50.072;7.036;2023-04-09T11:08:34;14.10;99.90
15426;DHT22;7812;50.072;7.036;2023-04-09T11:11:00;14.00;99.90
15426;DHT22;7812;50.072;7.036;2023-04-09T11:13:28;14.20;99.90
15426;DHT22;7812;50.072;7.036;2023-04-09T11:15:54;14.80;99.90
15426;DHT22;7812;50.072;7.036;2023-04-09T11:18:27;15.50;99.90
15426;DHT22;7812;50.072;7.036;2023-04-09T11:21:01;16.00;99.90
15426;DHT22;7812;50.072;7.036;2023-04-09T11:23:28;16.30;99.90
15426;DHT22;7812;50.072;7.036;2023-04-09T11:25:54;16.90;99.90
15426;DHT22;7812;50.072;7.036;2023-04-09T11:28:21;16.60;99.90
15426;DHT22;7812;50.072;7.036;2023-04-09T11:30:49;15.90;99.90
15426;DHT22;7812;50.072;7.036;2023-04-09T11:33:15;15.40;99.90
15426;DHT22;7812;50.072;7.036;2023-04-09T11:35:42;14.60;99.90
15426;DHT22;7812;50.072;7.036;2023-04-09T11:38:08;14.40;99.90
15426;DHT22;7812;50.072;7.036;2023-04-09T11:40:35;14.10;99.90
15426;DHT22;7812;50.072;7.036;2023-04-09T11:43:01;14.10;99.90
15426;DHT22;7812;50.072;7.036;2023-04-09T11:45:29;14.00;99.90
15426;DHT22;7812;50.072;7.036;2023-04-09T11:47:56;13.90;99.90
15426;DHT22;7812;50.072;7.036;2023-04-09T11:50:22;13.90;99.90
15426;DHT22;7812;50.072;7.036;2023-04-09T11:52:49;13.60;99.90
15426;DHT22;7812;50.072;7.036;2023-04-09T11:55:28;13.40;99.90
15426;DHT22;7812;50.072;7.036;2023-04-09T11:57:57;13.20;99.90
15426;DHT22;7812;50.072;7.036;2023-04-09T12:00:26;13.20;99.90
15426;DHT22;7812;50.072;7.036;2023-04-09T12:03:02;13.20;99.90
15426;DHT22;7812;50.072;7.036;2023-04-09T12:05:30;13.20;99.90
15426;DHT22;7812;50.072;7.036;2023-04-09T12:08:08;13.40;99.90
15426;DHT22;7812;50.072;7.036;2023-04-09T12:10:36;13.80;99.90
15426;DHT22;7812;50.072;7.036;2023-04-09T12:13:06;15.00;99.90
15426;DHT22;7812;50.072;7.036;2023-04-09T12:15:38;15.30;99.90
15426;DHT22;7812;50.072;7.036;2023-04-09T12:18:13;14.90;99.90
15426;DHT22;7812;50.072;7.036;2023-04-09T12:20:41;14.40;99.90
15426;DHT22;7812;50.072;7.036;2023-04-09T12:23:09;14.90;99.90
15426;DHT22;7812;50.072;7.036;2023-04-09T12:25:40;15.70;99.90
15426;DHT22;7812;50.072;7.036;2023-04-09T12:28:07;16.30;99.90
15426;DHT22;7812;50.072;7.036;2023-04-09T12:30:34;15.80;99.90
15426;DHT22;7812;50.072;7.036;2023-04-09T12:33:01;15.10;99.90
15426;DHT22;7812;50.072;7.036;2023-04-09T12:35:27;15.50;99.90
15426;DHT22;7812;50.072;7.036;2023-04-09T12:37:52;16.30;99.90
15426;DHT22;7812;50.072;7.036;2023-04-09T12:40:18;16.70;99.90
15426;DHT22;7812;50.072;7.036;2023-04-09T12:42:45;16.90;99.90
15426;DHT22;7812;50.072;7.036;2023-04-09T12:45:16;17.80;99.90
15426;DHT22;7812;50.072;7.036;2023-04-09T12:47:42;19.10;99.90
15426;DHT22;7812;50.072;7.036;2023-04-09T12:50:09;18.90;99.90
15426;DHT22;7812;50.072;7.036;2023-04-09T12:52:35;18.40;99.90
15426;DHT22;7812;50.072;7.036;2023-04-09T12:55:02;18.20;99.90
15426;DHT22;7812;50.072;7.036;2023-04-09T12:57:29;17.50;99.90
15426;DHT22;7812;50.072;7.036;2023-04-09T12:59:55;17.20;99.90
15426;DHT22;7812;50.072;7.036;2023-04-09T13:02:21;16.40;99.90
15426;DHT22;7812;50.072;7.036;2023-04-09T13:04:47;16.30;99.90
15426;DHT22;7812;50.072;7.036;2023-04-09T13:07:15;16.00;99.90
15426;DHT22;7812;50.072;7.036;2023-04-09T13:09:42;15.10;99.90
15426;DHT22;7812;50.072;7.036;2023-04-09T13:12:08;14.40;99.90
15426;DHT22;7812;50.072;7.036;2023-04-09T13:14:33;14.50;99.90
15426;DHT22;7812;50.072;7.036;2023-04-09T13:16:59;14.80;99.90
15426;DHT22;7812;50.072;7.036;2023-04-09T13:19:25;15.30;99.90
15426;DHT22;7812;50.072;7.036;2023-04-09T13:21:50;15.80;99.90
15426;DHT22;7812;50.072;7.036;2023-04-09T13:24:16;16.10;99.90
15426;DHT22;7812;50.072;7.036;2023-04-09T13:26:42;16.30;99.90
15426;DHT22;7812;50.072;7.036;2023-04-09T13:29:08;16.90;99.90
15426;DHT22;7812;50.072;7.036;2023-04-09T13:31:35;17.80;99.90
15426;DHT22;7812;50.072;7.036;2023-04-09T13:34:01;17.60;99.90
15426;DHT22;7812;50.072;7.036;2023-04-09T13:36:29;16.10;99.90
15426;DHT22;7812;50.072;7.036;2023-04-09T13:38:56;15.50;99.90
15426;DHT22;7812;50.072;7.036;2023-04-09T13:41:34;15.20;99.90
15426;DHT22;7812;50.072;7.036;2023-04-09T13:44:00;15.70;99.90
15426;DHT22;7812;50.072;7.036;2023-04-09T13:46:27;15.70;99.90
15426;DHT22;7812;50.072;7.036;2023-04-09T13:48:53;14.90;99.90
15426;DHT22;7812;50.072;7.036;2023-04-09T13:51:25;14.50;99.90
15426;DHT22;7812;50.072;7.036;2023-04-09T13:53:51;14.20;99.90
15426;DHT22;7812;50.072;7.036;2023-04-09T13:56:17;14.20;99.90
15426;DHT22;7812;50.072;7.036;2023-04-09T13:58:43;14.30;99.90
15426;DHT22;7812;50.072;7.036;2023-04-09T14:01:10;14.40;99.90
15426;DHT22;7812;50.072;7.036;2023-04-09T14:03:36;14.60;99.90
15426;DHT22;7812;50.072;7.036;2023-04-09T14:06:08;14.60;99.90
15426;DHT22;7812;50.072;7.036;2023-04-09T14:08:35;14.70;99.90
15426;DHT22;7812;50.072;7.036;2023-04-09T14:11:01;14.00;99.90
15426;DHT22;7812;50.072;7.036;2023-04-09T14:13:27;13.90;99.90
15426;DHT22;7812;50.072;7.036;2023-04-09T14:15:53;13.90;99.90
15426;DHT22;7812;50.072;7.036;2023-04-09T14:18:19;13.90;99.90
15426;DHT22;7812;50.072;7.036;2023-04-09T14:20:44;13.90;99.90
15426;DHT22;7812;50.072;7.036;2023-04-09T14:23:10;14.10;99.90
15426;DHT22;7812;50.072;7.036;2023-04-09T14:25:36;14.30;99.90
15426;DHT22;7812;50.072;7.036;2023-04-09T14:28:02;14.40;99.90
15426;DHT22;7812;50.072;7.036;2023-04-09T14:30:28;14.70;99.90
15426;DHT22;7812;50.072;7.036;2023-04-09T14:32:54;15.00;99.90
15426;DHT22;7812;50.072;7.036;2023-04-09T14:35:19;14.80;99.90
15426;DHT22;7812;50.072;7.036;2023-04-09T14:37:45;14.70;99.90
15426;DHT22;7812;50.072;7.036;2023-04-09T14:40:11;14.30;99.90
15426;DHT22;7812;50.072;7.036;2023-04-09T14:42:39;14.10;99.90
15426;DHT22;7812;50.072;7.036;2023-04-09T14:45:06;14.10;99.90
15426;DHT22;7812;50.072;7.036;2023-04-09T14:47:31;14.00;99.90
15426;DHT22;7812;50.072;7.036;2023-04-09T14:49:57;13.90;99.90
15426;DHT22;7812;50.072;7.036;2023-04-09T14:52:23;13.90;99.90
15426;DHT22;7812;50.072;7.036;2023-04-09T14:54:48;14.10;99.90
15426;DHT22;7812;50.072;7.036;2023-04-09T14:57:14;14.10;99.90
15426;DHT22;7812;50.072;7.036;2023-04-09T14:59:40;14.20;99.90
15426;DHT22;7812;50.072;7.036;2023-04-09T15:02:06;14.20;99.90
15426;DHT22;7812;50.072;7.036;2023-04-09T15:04:31;14.20;99.90
15426;DHT22;7812;50.072;7.036;2023-04-09T15:06:57;14.40;99.90
15426;DHT22;7812;50.072;7.036;2023-04-09T15:09:22;14.80;99.90
15426;DHT22;7812;50.072;7.036;2023-04-09T15:11:49;14.30;99.90
15426;DHT22;7812;50.072;7.036;2023-04-09T15:14:15;14.00;99.90
15426;DHT22;7812;50.072;7.036;2023-04-09T15:16:40;13.80;99.90
15426;DHT22;7812;50.072;7.036;2023-04-09T15:19:06;13.60;99.90
15426;DHT22;7812;50.072;7.036;2023-04-09T15:21:32;13.50;99.90
15426;DHT22;7812;50.072;7.036;2023-04-09T15:23:57;13.50;99.90
15426;DHT22;7812;50.072;7.036;2023-04-09T15:26:24;13.60;99.90
15426;DHT22;7812;50.072;7.036;2023-04-09T15:28:51;13.60;99.90
15426;DHT22;7812;50.072;7.036;2023-04-09T15:31:18;13.50;99.90
15426;DHT22;7812;50.072;7.036;2023-04-09T15:33:44;13.60;99.90
15426;DHT22;7812;50.072;7.036;2023-04-09T15:36:11;13.50;99.90
15426;DHT22;7812;50.072;7.036;2023-04-09T15:38:37;13.30;99.90
15426;DHT22;7812;50.072;7.036;2023-04-09T15:41:05;13.30;99.90
15426;DHT22;7812;50.072;7.036;2023-04-09T15:43:31;13.40;99.90
15426;DHT22;7812;50.072;7.036;2023-04-09T15:45:57;13.60;99.90
15426;DHT22;7812;50.072;7.036;2023-04-09T15:48:22;13.70;99.90
15426;DHT22;7812;50.072;7.036;2023-04-09T15:50:48;13.70;99.90
15426;DHT22;7812;50.072;7.036;2023-04-09T15:53:14;13.80;99.90
15426;DHT22;7812;50.072;7.036;2023-04-09T15:55:40;13.90;99.90
15426;DHT22;7812;50.072;7.036;2023-04-09T15:58:06;14.00;99.90
15426;DHT22;7812;50.072;7.036;2023-04-09T16:00:32;13.90;99.90
15426;DHT22;7812;50.072;7.036;2023-04-09T16:02:57;13.40;99.90